sensor_id;sensor_type;location;lat;lon;timestamp;temperature;humidity
3792;DHT22;1911;53.768;11.474;2023-10-31T00:00:06;10.60;99.90
3792;DHT22;1911;53.768;11.474;2023-10-31T00:02:37;10.60;99.90
3792;DHT22;1911;53.768;11.474;2023-10-31T00:05:03;10.60;99.90
3792;DHT22;1911;53.768;11.474;2023-10-31T00:07:29;10.60;99.90
3792;DHT22;1911;53.768;11.474;2023-10-31T00:09:55;10.60;99.90
3792;DHT22;1911;53.768;11.474;2023-10-31T00:12:20;10.60;99.90
3792;DHT22;1911;53.768;11.474;2023-10-31T00:14:46;10.60;99.90
3792;DHT22;1911;53.768;11.474;2023-10-31T00:17:11;10.50;99.90
3792;DHT22;1911;53.768;11.474;2023-10-31T00:19:37;10.60;99.90
3792;DHT22;1911;53.768;11.474;2023-10-31T00:22:03;10.50;99.90
3792;DHT22;1911;53.768;11.474;2023-10-31T00:24:28;10.50;99.90
3792;DHT22;1911;53.768;11.474;2023-10-31T00:26:54;10.60;99.90
3792;DHT22;1911;53.768;11.474;2023-10-31T00:29:20;10.50;99.90
3792;DHT22;1911;53.768;11.474;2023-10-31T00:31:45;10.60;99.90
3792;DHT22;1911;53.768;11.474;2023-10-31T00:34:11;10.50;99.90
3792;DHT22;1911;53.768;11.474;2023-10-31T00:36:36;10.50;99.90
3792;DHT22;1911;53.768;11.474;2023-10-31T00:39:02;10.50;99.90
3792;DHT22;1911;53.768;11.474;2023-10-31T00:41:28;10.50;99.90
3792;DHT22;1911;53.768;11.474;2023-10-31T00:43:53;10.50;99.90
3792;DHT22;1911;53.768;11.474;2023-10-31T00:46:19;10.50;99.90
3792;DHT22;1911;53.768;11.474;2023-10-31T00:48:44;10.50;99.90
3792;DHT22;1911;53.768;11.474;2023-10-31T00:51:10;10.50;99.90
3792;DHT22;1911;53.768;11.474;2023-10-31T00:53:35;10.50;99.90
3792;DHT22;1911;53.768;11.474;2023-10-31T00:56:02;10.50;99.90
3792;DHT22;1911;53.768;11.474;2023-10-31T00:58:27;10.50;99.90
3792;DHT22;1911;53.768;11.474;2023-10-31T01:00:53;10.50;99.90
3792;DHT22;1911;53.768;11.474;2023-10-31T01:03:18;10.50;99.90
3792;DHT22;1911;53.768;11.474;2023-10-31T01:05:44;10.40;99.90
3792;DHT22;1911;53.768;11.474;2023-10-31T01:08:09;10.40;99.90
3792;DHT22;1911;53.768;11.474;2023-10-31T01:10:35;10.50;99.90
3792;DHT22;1911;53.768;11.474;2023-10-31T01:13:01;10.50;99.90
3792;DHT22;1911;53.768;11.474;2023-10-31T01:15:26;10.50;99.90
3792;DHT22;1911;53.768;11.474;2023-10-31T01:17:52;10.40;99.90
3792;DHT22;1911;53.768;11.474;2023-10-31T01:20:17;10.50;99.90
3792;DHT22;1911;53.768;11.474;2023-10-31T01:22:43;10.50;99.90
3792;DHT22;1911;53.768;11.474;2023-10-31T01:25:08;10.50;99.90
3792;DHT22;1911;53.768;11.474;2023-10-31T01:27:35;10.50;99.90
3792;DHT22;1911;53.768;11.474;2023-10-31T01:30:00;10.50;99.90
3792;DHT22;1911;53.768;11.474;2023-10-31T01:32:26;10.50;99.90
3792;DHT22;1911;53.768;11.474;2023-10-31T01:34:51;10.50;99.90
3792;DHT22;1911;53.768;11.474;2023-10-31T01:37:17;10.50;99.90
3792;DHT22;1911;53.768;11.474;2023-10-31T01:39:45;10.50;99.90
3792;DHT22;1911;53.768;11.474;2023-10-31T01:42:13;10.50;99.90
3792;DHT22;1911;53.768;11.474;2023-10-31T01:44:40;10.50;99.90
3792;DHT22;1911;53.768;11.474;2023-10-31T01:47:05;10.50;99.90
3792;DHT22;1911;53.768;11.474;2023-10-31T01:49:31;10.50;99.90
3792;DHT22;1911;53.768;11.474;2023-10-31T01:51:59;10.40;99.90
3792;DHT22;1911;53.768;11.474;2023-10-31T01:54:25;10.40;99.90
3792;DHT22;1911;53.768;11.474;2023-10-31T01:56:51;10.40;99.90
3792;DHT22;1911;53.768;11.474;2023-10-31T01:59:21;10.40;99.90
3792;DHT22;1911;53.768;11.474;2023-10-31T02:01:47;10.40;99.90
3792;DHT22;1911;53.768;11.474;2023-10-31T02:04:16;10.40;99.90
3792;DHT22;1911;53.768;11.474;2023-10-31T02:06:41;10.40;99.90
3792;DHT22;1911;53.768;11.474;2023-10-31T02:09:07;10.40;99.90
3792;DHT22;1911;53.768;11.474;2023-10-31T02:11:32;10.30;99.90
3792;DHT22;1911;53.768;11.474;2023-10-31T02:13:58;10.30;99.90
3792;DHT22;1911;53.768;11.474;2023-10-31T02:16:23;10.40;99.90
3792;DHT22;1911;53.768;11.474;2023-10-31T02:18:50;10.40;99.90
3792;DHT22;1911;53.768;11.474;2023-10-31T02:21:17;10.40;99.90
3792;DHT22;1911;53.768;11.474;2023-10-31T02:23:58;10.40;99.90
3792;DHT22;1911;53.768;11.474;2023-10-31T02:26:29;10.40;99.90
3792;DHT22;1911;53.768;11.474;2023-10-31T02:28:54;10.40;99.90
3792;DHT22;1911;53.768;11.474;2023-10-31T02:31:20;10.40;99.90
3792;DHT22;1911;53.768;11.474;2023-10-31T02:33:45;10.40;99.90
3792;DHT22;1911;53.768;11.474;2023-10-31T02:36:11;10.40;99.90
3792;DHT22;1911;53.768;11.474;2023-10-31T02:38:36;10.40;99.90
3792;DHT22;1911;53.768;11.474;2023-10-31T02:41:02;10.40;99.90
3792;DHT22;1911;53.768;11.474;2023-10-31T02:43:28;10.40;99.90
3792;DHT22;1911;53.768;11.474;2023-10-31T02:45:53;10.40;99.90
3792;DHT22;1911;53.768;11.474;2023-10-31T02:48:19;10.40;99.90
3792;DHT22;1911;53.768;11.474;2023-10-31T02:50:45;10.40;99.90
3792;DHT22;1911;53.768;11.474;2023-10-31T02:53:11;10.40;99.90
3792;DHT22;1911;53.768;11.474;2023-10-31T02:55:37;10.40;99.90
3792;DHT22;1911;53.768;11.474;2023-10-31T02:58:02;10.40;99.90
3792;DHT22;1911;53.768;11.474;2023-10-31T03:00:28;10.40;99.90
3792;DHT22;1911;53.768;11.474;2023-10-31T03:02:54;10.40;99.90
3792;DHT22;1911;53.768;11.474;2023-10-31T03:05:19;10.40;99.90
3792;DHT22;1911;53.768;11.474;2023-10-31T03:07:45;10.50;99.90
3792;DHT22;1911;53.768;11.474;2023-10-31T03:10:11;10.50;99.90
3792;DHT22;1911;53.768;11.474;2023-10-31T03:12:36;10.40;99.90
3792;DHT22;1911;53.768;11.474;2023-10-31T03:15:03;10.40;99.90
3792;DHT22;1911;53.768;11.474;2023-10-31T03:17:29;10.40;99.90
3792;DHT22;1911;53.768;11.474;2023-10-31T03:19:55;10.40;99.90
3792;DHT22;1911;53.768;11.474;2023-10-31T03:22:21;10.40;99.90
3792;DHT22;1911;53.768;11.474;2023-10-31T03:24:46;10.40;99.90
3792;DHT22;1911;53.768;11.474;2023-10-31T03:27:12;10.50;99.90
3792;DHT22;1911;53.768;11.474;2023-10-31T03:29:37;10.40;99.90
3792;DHT22;1911;53.768;11.474;2023-10-31T03:32:03;10.50;99.90
3792;DHT22;1911;53.768;11.474;2023-10-31T03:34:30;10.50;99.90
3792;DHT22;1911;53.768;11.474;2023-10-31T03:36:56;10.40;99.90
3792;DHT22;1911;53.768;11.474;2023-10-31T03:39:21;10.50;99.90
3792;DHT22;1911;53.768;11.474;2023-10-31T03:41:47;10.50;99.90
3792;DHT22;1911;53.768;11.474;2023-10-31T03:44:12;10.50;99.90
3792;DHT22;1911;53.768;11.474;2023-10-31T03:46:38;10.50;99.90
3792;DHT22;1911;53.768;11.474;2023-10-31T03:49:04;10.50;99.90
3792;DHT22;1911;53.768;11.474;2023-10-31T03:51:33;10.50;99.90
3792;DHT22;1911;53.768;11.474;2023-10-31T03:53:58;10.50;99.90
3792;DHT22;1911;53.768;11.474;2023-10-31T03:56:24;10.50;99.90
3792;DHT22;1911;53.768;11.474;2023-10-31T03:58:49;10.50;99.90
3792;DHT22;1911;53.768;11.474;2023-10-31T04:01:15;10.50;99.90
3792;DHT22;1911;53.768;11.474;2023-10-31T04:03:41;10.50;99.90
3792;DHT22;1911;53.768;11.474;2023-10-31T04:06:06;10.50;99.90
3792;DHT22;1911;53.768;11.474;2023-10-31T04:08:32;10.60;99.90
3792;DHT22;1911;53.768;11.474;2023-10-31T04:10:57;10.60;99.90
3792;DHT22;1911;53.768;11.474;2023-10-31T04:13:23;10.60;99.90
3792;DHT22;1911;53.768;11.474;2023-10-31T04:15:49;10.60;99.90
3792;DHT22;1911;53.768;11.474;2023-10-31T04:18:14;10.60;99.90
3792;DHT22;1911;53.768;11.474;2023-10-31T04:20:40;10.60;99.90
3792;DHT22;1911;53.768;11.474;2023-10-31T04:23:06;10.70;99.90
3792;DHT22;1911;53.768;11.474;2023-10-31T04:25:31;10.70;99.90
3792;DHT22;1911;53.768;11.474;2023-10-31T04:27:57;10.70;99.90
3792;DHT22;1911;53.768;11.474;2023-10-31T04:30:23;10.70;99.90
3792;DHT22;1911;53.768;11.474;2023-10-31T04:32:49;10.70;99.90
3792;DHT22;1911;53.768;11.474;2023-10-31T04:35:14;10.80;99.90
3792;DHT22;1911;53.768;11.474;2023-10-31T04:37:40;10.80;99.90
3792;DHT22;1911;53.768;11.474;2023-10-31T04:40:06;10.80;99.90
3792;DHT22;1911;53.768;11.474;2023-10-31T04:42:32;10.80;99.90
3792;DHT22;1911;53.768;11.474;2023-10-31T04:44:59;10.90;99.90
3792;DHT22;1911;53.768;11.474;2023-10-31T04:47:24;10.80;99.90
3792;DHT22;1911;53.768;11.474;2023-10-31T04:49:50;10.80;99.90
3792;DHT22;1911;53.768;11.474;2023-10-31T04:52:17;10.80;99.90
3792;DHT22;1911;53.768;11.474;2023-10-31T04:54:45;10.80;99.90
3792;DHT22;1911;53.768;11.474;2023-10-31T04:57:10;10.90;99.90
3792;DHT22;1911;53.768;11.474;2023-10-31T04:59:36;10.90;99.90
3792;DHT22;1911;53.768;11.474;2023-10-31T05:02:03;10.90;99.90
3792;DHT22;1911;53.768;11.474;2023-10-31T05:04:28;11.00;99.90
3792;DHT22;1911;53.768;11.474;2023-10-31T05:06:54;11.00;99.90
3792;DHT22;1911;53.768;11.474;2023-10-31T05:09:20;11.00;99.90
3792;DHT22;1911;53.768;11.474;2023-10-31T05:11:45;11.00;99.90
3792;DHT22;1911;53.768;11.474;2023-10-31T05:14:11;11.10;99.90
3792;DHT22;1911;53.768;11.474;2023-10-31T05:16:41;11.10;99.90
3792;DHT22;1911;53.768;11.474;2023-10-31T05:19:07;11.10;99.90
3792;DHT22;1911;53.768;11.474;2023-10-31T05:21:32;11.10;99.90
3792;DHT22;1911;53.768;11.474;2023-10-31T05:23:58;11.10;99.90
3792;DHT22;1911;53.768;11.474;2023-10-31T05:26:23;11.10;99.90
3792;DHT22;1911;53.768;11.474;2023-10-31T05:28:49;11.10;99.90
3792;DHT22;1911;53.768;11.474;2023-10-31T05:31:17;11.10;99.90
3792;DHT22;1911;53.768;11.474;2023-10-31T05:33:43;11.10;99.90
3792;DHT22;1911;53.768;11.474;2023-10-31T05:36:25;11.10;99.90
3792;DHT22;1911;53.768;11.474;2023-10-31T05:38:51;11.10;99.90
3792;DHT22;1911;53.768;11.474;2023-10-31T05:41:16;11.10;99.90
3792;DHT22;1911;53.768;11.474;2023-10-31T05:43:42;11.10;99.90
3792;DHT22;1911;53.768;11.474;2023-10-31T05:46:08;11.20;99.90
3792;DHT22;1911;53.768;11.474;2023-10-31T05:48:43;11.20;99.90
3792;DHT22;1911;53.768;11.474;2023-10-31T05:51:16;11.20;99.90
3792;DHT22;1911;53.768;11.474;2023-10-31T05:53:43;11.20;99.90
3792;DHT22;1911;53.768;11.474;2023-10-31T05:56:09;11.20;99.90
3792;DHT22;1911;53.768;11.474;2023-10-31T05:58:36;11.20;99.90
3792;DHT22;1911;53.768;11.474;2023-10-31T06:01:02;11.20;99.90
3792;DHT22;1911;53.768;11.474;2023-10-31T06:03:28;11.20;99.90
3792;DHT22;1911;53.768;11.474;2023-10-31T06:05:54;11.30;99.90
3792;DHT22;1911;53.768;11.474;2023-10-31T06:08:19;11.30;99.90
3792;DHT22;1911;53.768;11.474;2023-10-31T06:10:45;11.40;99.90
3792;DHT22;1911;53.768;11.474;2023-10-31T06:13:11;11.40;99.90
3792;DHT22;1911;53.768;11.474;2023-10-31T06:15:36;11.40;99.90
3792;DHT22;1911;53.768;11.474;2023-10-31T06:18:02;11.40;99.90
3792;DHT22;1911;53.768;11.474;2023-10-31T06:20:28;11.50;99.90
3792;DHT22;1911;53.768;11.474;2023-10-31T06:22:54;11.50;99.90
3792;DHT22;1911;53.768;11.474;2023-10-31T06:25:19;11.50;99.90
3792;DHT22;1911;53.768;11.474;2023-10-31T06:27:45;11.50;99.90
3792;DHT22;1911;53.768;11.474;2023-10-31T06:30:11;11.60;99.90
3792;DHT22;1911;53.768;11.474;2023-10-31T06:32:36;11.50;99.90
3792;DHT22;1911;53.768;11.474;2023-10-31T06:35:05;11.60;99.90
3792;DHT22;1911;53.768;11.474;2023-10-31T06:37:31;11.60;99.90
3792;DHT22;1911;53.768;11.474;2023-10-31T06:39:56;11.60;99.90
3792;DHT22;1911;53.768;11.474;2023-10-31T06:42:22;11.60;99.90
3792;DHT22;1911;53.768;11.474;2023-10-31T06:44:47;11.70;99.90
3792;DHT22;1911;53.768;11.474;2023-10-31T06:47:13;11.70;99.90
3792;DHT22;1911;53.768;11.474;2023-10-31T06:49:39;11.70;99.90
3792;DHT22;1911;53.768;11.474;2023-10-31T06:52:05;11.70;99.90
3792;DHT22;1911;53.768;11.474;2023-10-31T06:54:31;11.70;99.90
3792;DHT22;1911;53.768;11.474;2023-10-31T06:56:57;11.70;99.90
3792;DHT22;1911;53.768;11.474;2023-10-31T06:59:33;11.70;99.90
3792;DHT22;1911;53.768;11.474;2023-10-31T07:01:59;11.80;99.90
3792;DHT22;1911;53.768;11.474;2023-10-31T07:04:24;11.70;99.90
3792;DHT22;1911;53.768;11.474;2023-10-31T07:06:50;11.70;99.90
3792;DHT22;1911;53.768;11.474;2023-10-31T07:09:25;11.80;99.90
3792;DHT22;1911;53.768;11.474;2023-10-31T07:11:51;11.70;99.90
3792;DHT22;1911;53.768;11.474;2023-10-31T07:14:17;11.80;99.90
3792;DHT22;1911;53.768;11.474;2023-10-31T07:16:42;11.80;99.90
3792;DHT22;1911;53.768;11.474;2023-10-31T07:19:11;11.90;99.90
3792;DHT22;1911;53.768;11.474;2023-10-31T07:21:37;11.90;99.90
3792;DHT22;1911;53.768;11.474;2023-10-31T07:24:02;11.90;99.90
3792;DHT22;1911;53.768;11.474;2023-10-31T07:26:28;11.90;99.90
3792;DHT22;1911;53.768;11.474;2023-10-31T07:28:54;11.90;99.90
3792;DHT22;1911;53.768;11.474;2023-10-31T07:31:19;11.90;99.90
3792;DHT22;1911;53.768;11.474;2023-10-31T07:33:45;11.90;99.90
3792;DHT22;1911;53.768;11.474;2023-10-31T07:36:11;11.90;99.90
3792;DHT22;1911;53.768;11.474;2023-10-31T07:38:37;12.00;99.90
3792;DHT22;1911;53.768;11.474;2023-10-31T07:41:03;12.00;99.90
3792;DHT22;1911;53.768;11.474;2023-10-31T07:43:28;12.00;99.90
3792;DHT22;1911;53.768;11.474;2023-10-31T07:45:54;12.00;99.90
3792;DHT22;1911;53.768;11.474;2023-10-31T07:48:20;12.00;99.90
3792;DHT22;1911;53.768;11.474;2023-10-31T07:50:45;12.00;99.90
3792;DHT22;1911;53.768;11.474;2023-10-31T07:53:11;12.00;99.90
3792;DHT22;1911;53.768;11.474;2023-10-31T07:55:37;12.00;99.90
3792;DHT22;1911;53.768;11.474;2023-10-31T07:58:02;12.00;99.90
3792;DHT22;1911;53.768;11.474;2023-10-31T08:00:28;12.00;99.90
3792;DHT22;1911;53.768;11.474;2023-10-31T08:02:53;12.00;99.90
3792;DHT22;1911;53.768;11.474;2023-10-31T08:05:19;12.00;99.90
3792;DHT22;1911;53.768;11.474;2023-10-31T08:07:44;12.00;99.90
3792;DHT22;1911;53.768;11.474;2023-10-31T08:10:10;12.00;99.90
3792;DHT22;1911;53.768;11.474;2023-10-31T08:12:36;12.00;99.90
3792;DHT22;1911;53.768;11.474;2023-10-31T08:15:02;12.00;99.90
3792;DHT22;1911;53.768;11.474;2023-10-31T08:17:27;12.00;99.90
3792;DHT22;1911;53.768;11.474;2023-10-31T08:19:53;12.00;99.90
3792;DHT22;1911;53.768;11.474;2023-10-31T08:22:18;12.00;99.90
3792;DHT22;1911;53.768;11.474;2023-10-31T08:24:44;12.00;99.90
3792;DHT22;1911;53.768;11.474;2023-10-31T08:27:10;11.90;99.90
3792;DHT22;1911;53.768;11.474;2023-10-31T08:29:36;11.90;99.90
3792;DHT22;1911;53.768;11.474;2023-10-31T08:32:02;11.90;99.90
3792;DHT22;1911;53.768;11.474;2023-10-31T08:34:27;11.90;99.90
3792;DHT22;1911;53.768;11.474;2023-10-31T08:36:53;11.80;99.90
3792;DHT22;1911;53.768;11.474;2023-10-31T08:39:19;11.80;99.90
3792;DHT22;1911;53.768;11.474;2023-10-31T08:41:52;11.80;99.90
3792;DHT22;1911;53.768;11.474;2023-10-31T08:44:17;11.70;99.90
3792;DHT22;1911;53.768;11.474;2023-10-31T08:46:43;11.70;99.90
3792;DHT22;1911;53.768;11.474;2023-10-31T08:49:09;11.70;99.90
3792;DHT22;1911;53.768;11.474;2023-10-31T08:51:34;11.70;99.90
3792;DHT22;1911;53.768;11.474;2023-10-31T08:54:00;11.60;99.90
3792;DHT22;1911;53.768;11.474;2023-10-31T08:56:25;11.60;99.90
3792;DHT22;1911;53.768;11.474;2023-10-31T08:58:53;11.60;99.90
3792;DHT22;1911;53.768;11.474;2023-10-31T09:01:19;11.60;99.90
3792;DHT22;1911;53.768;11.474;2023-10-31T09:03:45;11.50;99.90
3792;DHT22;1911;53.768;11.474;2023-10-31T09:06:10;11.50;99.90
3792;DHT22;1911;53.768;11.474;2023-10-31T09:08:36;11.50;99.90
3792;DHT22;1911;53.768;11.474;2023-10-31T09:11:04;11.50;99.90
3792;DHT22;1911;53.768;11.474;2023-10-31T09:13:31;11.50;99.90
3792;DHT22;1911;53.768;11.474;2023-10-31T09:16:00;11.50;99.90
3792;DHT22;1911;53.768;11.474;2023-10-31T09:18:26;11.50;99.90
3792;DHT22;1911;53.768;11.474;2023-10-31T09:20:52;11.50;99.90
3792;DHT22;1911;53.768;11.474;2023-10-31T09:23:17;11.50;99.90
3792;DHT22;1911;53.768;11.474;2023-10-31T09:25:44;11.50;99.90
3792;DHT22;1911;53.768;11.474;2023-10-31T09:28:09;11.40;99.90
3792;DHT22;1911;53.768;11.474;2023-10-31T09:30:35;11.50;99.90
3792;DHT22;1911;53.768;11.474;2023-10-31T09:33:00;11.40;99.90
3792;DHT22;1911;53.768;11.474;2023-10-31T09:35:26;11.50;99.90
3792;DHT22;1911;53.768;11.474;2023-10-31T09:37:53;11.40;99.90
3792;DHT22;1911;53.768;11.474;2023-10-31T09:40:19;11.50;99.90
3792;DHT22;1911;53.768;11.474;2023-10-31T09:42:45;11.50;99.90
3792;DHT22;1911;53.768;11.474;2023-10-31T09:45:11;11.50;99.90
3792;DHT22;1911;53.768;11.474;2023-10-31T09:47:38;11.50;99.90
3792;DHT22;1911;53.768;11.474;2023-10-31T09:50:04;11.40;99.90
3792;DHT22;1911;53.768;11.474;2023-10-31T09:52:30;11.40;99.90
3792;DHT22;1911;53.768;11.474;2023-10-31T09:54:56;11.40;99.90
3792;DHT22;1911;53.768;11.474;2023-10-31T09:57:23;11.40;99.90
3792;DHT22;1911;53.768;11.474;2023-10-31T09:59:48;11.40;99.90
3792;DHT22;1911;53.768;11.474;2023-10-31T10:02:14;11.40;99.90
3792;DHT22;1911;53.768;11.474;2023-10-31T10:04:40;11.50;99.90
3792;DHT22;1911;53.768;11.474;2023-10-31T10:07:05;11.50;99.90
3792;DHT22;1911;53.768;11.474;2023-10-31T10:09:31;11.50;99.90
3792;DHT22;1911;53.768;11.474;2023-10-31T10:11:59;11.50;99.90
3792;DHT22;1911;53.768;11.474;2023-10-31T10:14:26;11.50;99.90
3792;DHT22;1911;53.768;11.474;2023-10-31T10:16:57;11.50;99.90
3792;DHT22;1911;53.768;11.474;2023-10-31T10:19:23;11.40;99.90
3792;DHT22;1911;53.768;11.474;2023-10-31T10:21:54;11.40;99.90
3792;DHT22;1911;53.768;11.474;2023-10-31T10:24:21;11.40;99.90
3792;DHT22;1911;53.768;11.474;2023-10-31T10:26:47;11.30;99.90
3792;DHT22;1911;53.768;11.474;2023-10-31T10:29:14;11.30;99.90
3792;DHT22;1911;53.768;11.474;2023-10-31T10:31:40;11.40;99.90
3792;DHT22;1911;53.768;11.474;2023-10-31T10:34:06;11.40;99.90
3792;DHT22;1911;53.768;11.474;2023-10-31T10:36:33;11.40;99.90
3792;DHT22;1911;53.768;11.474;2023-10-31T10:38:59;11.40;99.90
3792;DHT22;1911;53.768;11.474;2023-10-31T10:41:27;11.40;99.90
3792;DHT22;1911;53.768;11.474;2023-10-31T10:43:59;11.30;99.90
3792;DHT22;1911;53.768;11.474;2023-10-31T10:46:33;11.30;99.90
3792;DHT22;1911;53.768;11.474;2023-10-31T10:48:59;11.40;99.90
3792;DHT22;1911;53.768;11.474;2023-10-31T10:51:46;11.50;99.90
3792;DHT22;1911;53.768;11.474;2023-10-31T10:54:34;11.50;99.90
3792;DHT22;1911;53.768;11.474;2023-10-31T10:57:32;11.50;99.90
3792;DHT22;1911;53.768;11.474;2023-10-31T11:00:04;11.60;99.90
3792;DHT22;1911;53.768;11.474;2023-10-31T11:02:30;11.60;99.90
3792;DHT22;1911;53.768;11.474;2023-10-31T11:04:57;11.60;99.90
3792;DHT22;1911;53.768;11.474;2023-10-31T11:07:26;11.60;99.90
3792;DHT22;1911;53.768;11.474;2023-10-31T11:09:53;11.60;99.90
3792;DHT22;1911;53.768;11.474;2023-10-31T11:12:20;11.60;99.90
3792;DHT22;1911;53.768;11.474;2023-10-31T11:14:48;11.60;99.90
3792;DHT22;1911;53.768;11.474;2023-10-31T11:17:32;11.60;99.90
3792;DHT22;1911;53.768;11.474;2023-10-31T11:20:00;11.50;99.90
3792;DHT22;1911;53.768;11.474;2023-10-31T11:22:37;11.50;99.90
3792;DHT22;1911;53.768;11.474;2023-10-31T11:25:03;11.50;99.90
3792;DHT22;1911;53.768;11.474;2023-10-31T11:27:29;11.60;99.90
3792;DHT22;1911;53.768;11.474;2023-10-31T11:29:54;11.70;99.90
3792;DHT22;1911;53.768;11.474;2023-10-31T11:32:22;11.50;99.90
3792;DHT22;1911;53.768;11.474;2023-10-31T11:34:47;11.50;99.90
3792;DHT22;1911;53.768;11.474;2023-10-31T11:37:27;11.40;99.90
3792;DHT22;1911;53.768;11.474;2023-10-31T11:40:17;11.30;99.90
3792;DHT22;1911;53.768;11.474;2023-10-31T11:42:56;11.30;99.90
3792;DHT22;1911;53.768;11.474;2023-10-31T11:45:44;11.30;99.90
3792;DHT22;1911;53.768;11.474;2023-10-31T11:48:12;11.20;99.90
3792;DHT22;1911;53.768;11.474;2023-10-31T11:50:38;11.20;99.90
3792;DHT22;1911;53.768;11.474;2023-10-31T11:53:14;11.20;99.90
3792;DHT22;1911;53.768;11.474;2023-10-31T11:55:43;11.20;99.90
3792;DHT22;1911;53.768;11.474;2023-10-31T11:58:19;11.10;99.90
3792;DHT22;1911;53.768;11.474;2023-10-31T12:00:50;11.00;99.90
3792;DHT22;1911;53.768;11.474;2023-10-31T12:03:20;10.80;99.90
3792;DHT22;1911;53.768;11.474;2023-10-31T12:08:31;10.30;99.90
3792;DHT22;1911;53.768;11.474;2023-10-31T12:13:40;9.80;99.90
3792;DHT22;1911;53.768;11.474;2023-10-31T12:16:10;9.70;99.90
3792;DHT22;1911;53.768;11.474;2023-10-31T12:18:37;9.70;99.90
3792;DHT22;1911;53.768;11.474;2023-10-31T12:21:04;9.60;99.90
3792;DHT22;1911;53.768;11.474;2023-10-31T12:23:30;9.50;99.90
3792;DHT22;1911;53.768;11.474;2023-10-31T12:25:55;9.50;99.90
3792;DHT22;1911;53.768;11.474;2023-10-31T12:28:23;9.60;99.90
3792;DHT22;1911;53.768;11.474;2023-10-31T12:31:22;9.40;99.90
3792;DHT22;1911;53.768;11.474;2023-10-31T12:34:12;9.30;99.90
3792;DHT22;1911;53.768;11.474;2023-10-31T12:36:49;9.40;99.90
3792;DHT22;1911;53.768;11.474;2023-10-31T12:39:15;9.30;99.90
3792;DHT22;1911;53.768;11.474;2023-10-31T12:41:52;9.30;99.90
3792;DHT22;1911;53.768;11.474;2023-10-31T13:15:26;9.30;99.90
3792;DHT22;1911;53.768;11.474;2023-10-31T13:17:52;9.10;99.90
3792;DHT22;1911;53.768;11.474;2023-10-31T13:20:19;9.00;99.90
3792;DHT22;1911;53.768;11.474;2023-10-31T13:22:45;9.00;99.90
3792;DHT22;1911;53.768;11.474;2023-10-31T13:25:12;9.10;99.90
3792;DHT22;1911;53.768;11.474;2023-10-31T13:27:40;9.10;99.90
3792;DHT22;1911;53.768;11.474;2023-10-31T13:30:07;9.10;99.90
3792;DHT22;1911;53.768;11.474;2023-10-31T13:32:40;9.00;99.90
3792;DHT22;1911;53.768;11.474;2023-10-31T13:35:06;9.00;99.90
3792;DHT22;1911;53.768;11.474;2023-10-31T13:37:34;9.00;99.90
3792;DHT22;1911;53.768;11.474;2023-10-31T13:40:02;9.00;99.90
3792;DHT22;1911;53.768;11.474;2023-10-31T13:42:30;9.10;99.90
3792;DHT22;1911;53.768;11.474;2023-10-31T13:44:56;9.00;99.90
3792;DHT22;1911;53.768;11.474;2023-10-31T13:47:22;9.00;99.90
3792;DHT22;1911;53.768;11.474;2023-10-31T13:49:47;9.00;99.90
3792;DHT22;1911;53.768;11.474;2023-10-31T13:52:14;9.10;99.90
3792;DHT22;1911;53.768;11.474;2023-10-31T13:54:40;9.10;99.90
3792;DHT22;1911;53.768;11.474;2023-10-31T13:57:06;9.00;99.90
3792;DHT22;1911;53.768;11.474;2023-10-31T13:59:31;9.00;99.90
3792;DHT22;1911;53.768;11.474;2023-10-31T14:02:03;9.00;99.90
3792;DHT22;1911;53.768;11.474;2023-10-31T14:04:29;9.00;99.90
3792;DHT22;1911;53.768;11.474;2023-10-31T14:06:55;8.90;99.90
3792;DHT22;1911;53.768;11.474;2023-10-31T14:09:20;8.70;99.90
3792;DHT22;1911;53.768;11.474;2023-10-31T14:11:46;8.70;99.90
3792;DHT22;1911;53.768;11.474;2023-10-31T14:14:12;8.70;99.90
3792;DHT22;1911;53.768;11.474;2023-10-31T14:16:42;8.70;99.90
3792;DHT22;1911;53.768;11.474;2023-10-31T14:19:10;8.70;99.90
3792;DHT22;1911;53.768;11.474;2023-10-31T14:21:36;8.70;99.90
3792;DHT22;1911;53.768;11.474;2023-10-31T14:24:02;8.70;99.90
3792;DHT22;1911;53.768;11.474;2023-10-31T14:26:29;8.80;99.90
3792;DHT22;1911;53.768;11.474;2023-10-31T14:28:55;8.70;99.90
3792;DHT22;1911;53.768;11.474;2023-10-31T14:31:21;8.70;99.90
3792;DHT22;1911;53.768;11.474;2023-10-31T14:33:47;8.70;99.90
3792;DHT22;1911;53.768;11.474;2023-10-31T14:36:13;8.70;99.90
3792;DHT22;1911;53.768;11.474;2023-10-31T14:38:40;8.70;99.90
3792;DHT22;1911;53.768;11.474;2023-10-31T14:41:06;8.70;99.90
3792;DHT22;1911;53.768;11.474;2023-10-31T21:40:16;3.30;99.90
3792;DHT22;1911;53.768;11.474;2023-10-31T21:42:42;3.40;99.90
3792;DHT22;1911;53.768;11.474;2023-10-31T21:45:08;3.40;99.90
3792;DHT22;1911;53.768;11.474;2023-10-31T21:47:33;3.30;99.90
3792;DHT22;1911;53.768;11.474;2023-10-31T21:49:59;3.30;99.90
3792;DHT22;1911;53.768;11.474;2023-10-31T21:52:26;3.40;99.90
3792;DHT22;1911;53.768;11.474;2023-10-31T21:54:51;3.40;99.90
3792;DHT22;1911;53.768;11.474;2023-10-31T21:57:17;3.40;99.90
3792;DHT22;1911;53.768;11.474;2023-10-31T21:59:43;3.40;99.90
3792;DHT22;1911;53.768;11.474;2023-10-31T22:02:09;3.30;99.90
3792;DHT22;1911;53.768;11.474;2023-10-31T22:04:34;3.40;99.90
3792;DHT22;1911;53.768;11.474;2023-10-31T22:07:00;3.40;99.90
3792;DHT22;1911;53.768;11.474;2023-10-31T22:09:25;3.30;99.90
3792;DHT22;1911;53.768;11.474;2023-10-31T22:11:52;3.30;99.90
3792;DHT22;1911;53.768;11.474;2023-10-31T22:14:17;3.30;99.90
3792;DHT22;1911;53.768;11.474;2023-10-31T22:16:43;3.30;99.90
3792;DHT22;1911;53.768;11.474;2023-10-31T22:19:08;3.30;99.90
3792;DHT22;1911;53.768;11.474;2023-10-31T22:21:35;3.30;99.90
3792;DHT22;1911;53.768;11.474;2023-10-31T22:24:00;3.30;99.90
3792;DHT22;1911;53.768;11.474;2023-10-31T22:26:26;3.30;99.90
3792;DHT22;1911;53.768;11.474;2023-10-31T22:28:53;3.30;99.90
3792;DHT22;1911;53.768;11.474;2023-10-31T22:31:19;3.30;99.90
3792;DHT22;1911;53.768;11.474;2023-10-31T22:33:44;3.30;99.90
3792;DHT22;1911;53.768;11.474;2023-10-31T22:36:10;3.40;99.90
3792;DHT22;1911;53.768;11.474;2023-10-31T22:38:36;3.40;99.90
3792;DHT22;1911;53.768;11.474;2023-10-31T22:41:02;3.40;99.90
3792;DHT22;1911;53.768;11.474;2023-10-31T22:43:28;3.40;99.90
3792;DHT22;1911;53.768;11.474;2023-10-31T22:45:55;3.50;99.90
3792;DHT22;1911;53.768;11.474;2023-10-31T22:48:21;3.50;99.90
3792;DHT22;1911;53.768;11.474;2023-10-31T22:50:47;3.40;99.90
3792;DHT22;1911;53.768;11.474;2023-10-31T22:53:13;3.40;99.90
3792;DHT22;1911;53.768;11.474;2023-10-31T22:55:41;3.40;99.90
3792;DHT22;1911;53.768;11.474;2023-10-31T22:58:07;3.40;99.90
3792;DHT22;1911;53.768;11.474;2023-10-31T23:00:34;3.40;99.90
3792;DHT22;1911;53.768;11.474;2023-10-31T23:03:00;3.30;99.90
3792;DHT22;1911;53.768;11.474;2023-10-31T23:05:27;3.30;99.90
3792;DHT22;1911;53.768;11.474;2023-10-31T23:07:53;3.30;99.90
3792;DHT22;1911;53.768;11.474;2023-10-31T23:10:19;3.30;99.90
3792;DHT22;1911;53.768;11.474;2023-10-31T23:12:46;3.40;99.90
3792;DHT22;1911;53.768;11.474;2023-10-31T23:15:12;3.30;99.90
3792;DHT22;1911;53.768;11.474;2023-10-31T23:17:38;3.30;99.90
3792;DHT22;1911;53.768;11.474;2023-10-31T23:20:09;3.20;99.90